Main page
METAR-TAF:

METAR-TAF

Airports :

LaGrange Callaway Airport

Lagrange, Georgia, United States

latitude: 33-00-32N, longitude: 085-04-21W, elevation: 692 ft

Current weather observation

The report was made 44 minutes ago, at 05:35 UTC
Calm wind
Temperature 66°F
Humidity 100%
Pressure 30.00 in. Hg
Visibility: 10 miles
Clear sky

METAR: KLGC 240535Z AUTO 00000KT 10SM CLR 19/19 A3000 RMK AO2 T01930187

Time: 02:19 (06:19 UTC)


TAF: missing

Weather observations and forecasts of more than 4000 airports (METAR and TAF reports).

The available stations are represented by yellow and red dots on the map.

Hover mouse over dot to see the name of the station.

Then click to see weather observations and forecasts.

To change the map : click on the green buttons with a black cross to zoom in, on the green button with a dash to zoom out, or on the green arrows for adjacent maps.


METAR-TAF: